createdAt,value
2022-12-22T00:02:30.584Z,10.56
2022-12-22T00:05:16.455Z,10.66
2022-12-22T00:08:02.171Z,10.69
2022-12-22T00:10:47.873Z,10.92
2022-12-22T00:13:35.144Z,10.68
2022-12-22T00:16:23.192Z,10.79
2022-12-22T00:19:08.929Z,10.91
2022-12-22T00:21:54.571Z,11.04
2022-12-22T00:24:40.171Z,11.17
2022-12-22T00:27:27.424Z,11.24
2022-12-22T00:30:14.094Z,11.15
2022-12-22T00:32:59.668Z,11.10
2022-12-22T00:35:45.380Z,11.02
2022-12-22T00:38:32.626Z,10.85
2022-12-22T00:41:18.267Z,10.67
2022-12-22T00:44:03.889Z,10.83
2022-12-22T00:46:54.640Z,10.95
2022-12-22T00:49:41.572Z,10.91
2022-12-22T00:52:27.203Z,10.99
2022-12-22T00:55:12.923Z,11.02
2022-12-22T00:57:59.765Z,11.04
2022-12-22T01:00:45.983Z,10.79
2022-12-22T01:03:33.060Z,10.90
2022-12-22T01:06:20.410Z,10.78
2022-12-22T01:09:06.307Z,10.78
2022-12-22T01:11:52.012Z,10.62
2022-12-22T01:14:37.728Z,10.51
2022-12-22T01:17:23.570Z,10.35
2022-12-22T01:20:10.445Z,10.26
2022-12-22T01:22:55.757Z,10.13
2022-12-22T01:25:41.201Z,10.16
2022-12-22T01:28:31.686Z,10.30
2022-12-22T01:31:38.146Z,10.22
2022-12-22T01:34:23.823Z,9.96
2022-12-22T01:37:13.040Z,10.02
2022-12-22T01:39:58.827Z,9.92
2022-12-22T01:42:44.884Z,9.98
2022-12-22T01:45:37.927Z,9.93
2022-12-22T01:48:23.711Z,9.90
2022-12-22T01:51:09.436Z,10.05
2022-12-22T01:53:56.644Z,10.08
2022-12-22T01:56:43.890Z,10.01
2022-12-22T01:59:29.425Z,10.07
2022-12-22T02:02:17.301Z,10.08
2022-12-22T02:05:05.739Z,10.04
2022-12-22T02:07:59.129Z,10.02
2022-12-22T02:10:55.187Z,10.05
2022-12-22T02:13:43.644Z,9.95
2022-12-22T02:16:33.389Z,10.14
2022-12-22T02:19:23.489Z,10.13
2022-12-22T02:22:13.920Z,10.08
2022-12-22T02:25:02.379Z,10.03
2022-12-22T02:27:50.615Z,10.00
2022-12-22T02:30:36.282Z,10.03
2022-12-22T02:33:22.779Z,10.04
2022-12-22T02:36:13.841Z,10.14
2022-12-22T02:39:01.741Z,10.29
2022-12-22T02:41:52.007Z,10.21
2022-12-22T02:44:43.676Z,10.38
2022-12-22T02:47:32.342Z,10.18
2022-12-22T02:50:21.409Z,10.15
2022-12-22T02:53:07.521Z,10.04
2022-12-22T02:55:53.373Z,9.95
2022-12-22T02:58:41.976Z,10.17
2022-12-22T03:01:29.163Z,10.30
2022-12-22T03:04:14.879Z,10.12
2022-12-22T03:07:00.530Z,9.95
2022-12-22T03:09:46.135Z,10.07
2022-12-22T03:12:31.704Z,9.98
2022-12-22T03:15:17.490Z,10.20
2022-12-22T03:18:04.416Z,9.95
2022-12-22T03:20:50.021Z,10.26
2022-12-22T03:23:35.584Z,9.98
2022-12-22T03:26:06.091Z,10.28
2022-12-22T03:28:34.173Z,10.18
2022-12-22T03:31:03.482Z,10.07
2022-12-22T03:33:33.399Z,10.36
2022-12-22T03:36:01.870Z,10.22
2022-12-22T03:38:30.398Z,9.91
2022-12-22T03:40:58.423Z,10.07
2022-12-22T03:43:45.369Z,10.11
2022-12-22T03:46:32.413Z,9.95
2022-12-22T03:49:11.372Z,9.88
2022-12-22T03:51:40.656Z,9.84
2022-12-22T03:54:08.937Z,9.89
2022-12-22T03:56:37.181Z,9.81
2022-12-22T03:59:05.281Z,9.79
2022-12-22T04:01:34.035Z,9.70
2022-12-22T04:04:03.637Z,9.69
2022-12-22T04:06:31.733Z,9.66
2022-12-22T04:09:01.951Z,9.61
2022-12-22T04:11:47.937Z,9.68
2022-12-22T04:14:16.104Z,9.54
2022-12-22T04:16:44.313Z,9.65
2022-12-22T04:19:16.334Z,9.73
2022-12-22T04:21:45.276Z,9.86
2022-12-22T04:24:15.960Z,9.89
2022-12-22T04:26:44.043Z,9.96
2022-12-22T04:29:12.140Z,10.06
2022-12-22T04:31:40.258Z,10.03
2022-12-22T04:34:08.340Z,10.08
2022-12-22T04:36:37.761Z,10.14
2022-12-22T04:39:05.917Z,9.98
2022-12-22T04:41:34.142Z,10.26
2022-12-22T04:44:06.806Z,10.41
2022-12-22T04:46:34.909Z,10.44
2022-12-22T04:49:02.986Z,10.35
2022-12-22T04:51:30.960Z,10.27
2022-12-22T04:54:00.366Z,10.56
2022-12-22T04:56:28.419Z,10.26
2022-12-22T04:58:56.459Z,10.00
2022-12-22T05:01:24.581Z,10.16
2022-12-22T05:03:52.731Z,10.07
2022-12-22T05:06:22.040Z,10.27
2022-12-22T05:08:51.357Z,9.97
2022-12-22T05:11:21.045Z,10.30
2022-12-22T05:13:49.308Z,10.28
2022-12-22T05:16:17.884Z,10.16
2022-12-22T05:18:46.640Z,10.10
2022-12-22T05:21:16.010Z,10.40
2022-12-22T05:23:46.757Z,10.43
2022-12-22T05:26:15.556Z,10.11
2022-12-22T05:28:46.290Z,10.23
2022-12-22T05:31:16.573Z,10.19
2022-12-22T05:33:44.633Z,10.27
2022-12-22T05:36:12.745Z,10.21
2022-12-22T05:38:41.167Z,10.47
2022-12-22T05:41:09.157Z,10.61
2022-12-22T05:43:37.513Z,10.42
2022-12-22T05:46:07.684Z,10.24
2022-12-22T05:48:39.154Z,10.32
2022-12-22T05:51:08.043Z,10.20
2022-12-22T05:53:36.361Z,9.95
2022-12-22T05:56:04.709Z,10.14
2022-12-22T05:58:32.888Z,10.04
2022-12-22T06:01:01.418Z,9.90
2022-12-22T06:03:31.729Z,9.77
2022-12-22T06:06:00.336Z,9.88
2022-12-22T06:08:28.721Z,10.11
2022-12-22T06:10:57.174Z,10.10
2022-12-22T06:13:26.027Z,9.72
2022-12-22T06:15:54.421Z,9.40
2022-12-22T06:18:22.671Z,9.79
2022-12-22T06:20:53.668Z,10.13
2022-12-22T06:23:22.019Z,10.20
2022-12-22T06:25:55.809Z,10.25
2022-12-22T06:28:24.337Z,10.31
2022-12-22T06:30:52.572Z,10.52
2022-12-22T06:33:21.118Z,10.27
2022-12-22T06:35:53.979Z,10.19
2022-12-22T06:38:27.409Z,10.37
2022-12-22T06:40:55.447Z,10.30
2022-12-22T06:43:22.495Z,10.28
2022-12-22T06:45:50.557Z,10.07
2022-12-22T06:48:18.712Z,10.27
2022-12-22T06:50:46.829Z,10.20
2022-12-22T06:53:15.079Z,10.51
2022-12-22T06:55:44.403Z,10.45
2022-12-22T06:58:12.563Z,10.49
2022-12-22T07:00:40.640Z,10.73
2022-12-22T07:03:09.594Z,10.71
2022-12-22T07:05:38.007Z,10.86
2022-12-22T07:08:09.144Z,10.79
2022-12-22T07:10:55.476Z,10.56
2022-12-22T07:13:25.457Z,10.46
2022-12-22T07:16:02.136Z,10.51
2022-12-22T07:18:32.264Z,10.29
2022-12-22T07:21:00.683Z,10.35
2022-12-22T07:23:28.773Z,10.28
2022-12-22T07:25:57.093Z,10.34
2022-12-22T07:28:28.825Z,10.34
2022-12-22T07:30:56.943Z,10.71
2022-12-22T07:33:27.925Z,11.05
2022-12-22T07:36:05.563Z,10.99
2022-12-22T07:38:35.989Z,10.72
2022-12-22T07:41:24.857Z,10.80
2022-12-22T07:43:54.899Z,11.11
2022-12-22T07:46:23.444Z,11.25
2022-12-22T07:49:09.802Z,11.09
2022-12-22T07:51:42.816Z,11.12
2022-12-22T07:54:13.171Z,10.95
2022-12-22T07:56:42.240Z,10.85
2022-12-22T07:59:12.267Z,10.83
2022-12-22T08:01:41.653Z,10.93
2022-12-22T08:04:10.786Z,11.10
2022-12-22T08:06:39.722Z,11.54
2022-12-22T08:09:09.200Z,11.51
2022-12-22T08:11:37.866Z,11.84
2022-12-22T08:14:06.067Z,11.83
2022-12-22T08:16:35.745Z,11.92
2022-12-22T08:19:03.916Z,12.02
2022-12-22T08:21:31.940Z,11.99
2022-12-22T08:24:00.076Z,11.85
2022-12-22T08:26:32.232Z,11.78
2022-12-22T08:29:04.505Z,11.87
2022-12-22T08:31:32.867Z,11.69
2022-12-22T08:34:04.051Z,11.83
2022-12-22T08:36:33.922Z,11.81
2022-12-22T08:39:02.785Z,11.75
2022-12-22T08:41:48.884Z,11.77
2022-12-22T08:44:18.326Z,11.29
2022-12-22T08:46:46.751Z,11.28
2022-12-22T08:49:16.292Z,11.40
2022-12-22T08:51:47.438Z,11.30
2022-12-22T08:54:15.471Z,11.45
2022-12-22T08:56:43.892Z,11.61
2022-12-22T08:59:12.456Z,11.76
2022-12-22T09:01:42.757Z,11.95
2022-12-22T09:04:13.207Z,11.93
2022-12-22T09:06:42.599Z,12.33
2022-12-22T09:09:11.462Z,12.03
2022-12-22T09:11:40.232Z,11.62
2022-12-22T09:14:09.091Z,11.60
2022-12-22T09:16:37.750Z,11.56
2022-12-22T09:19:06.351Z,11.44
2022-12-22T09:21:34.448Z,11.23
2022-12-22T09:24:04.474Z,11.61
2022-12-22T09:26:33.265Z,11.27
2022-12-22T09:29:01.496Z,11.22
2022-12-22T09:31:30.067Z,11.34
2022-12-22T09:33:58.682Z,11.21
2022-12-22T09:36:29.278Z,11.05
2022-12-22T09:38:57.370Z,11.04
2022-12-22T09:41:31.692Z,11.10
2022-12-22T09:44:03.554Z,11.14
2022-12-22T09:46:33.527Z,11.12
2022-12-22T09:49:01.795Z,11.00
2022-12-22T09:51:30.431Z,11.00
2022-12-22T09:53:59.864Z,10.94
2022-12-22T09:56:31.602Z,10.87
2022-12-22T09:59:01.401Z,10.99
2022-12-22T10:01:34.498Z,10.60
2022-12-22T10:04:07.686Z,10.85
2022-12-22T10:06:44.547Z,10.81
2022-12-22T10:09:46.161Z,10.84
2022-12-22T10:12:16.359Z,10.91
2022-12-22T10:14:46.851Z,10.57
2022-12-22T10:17:17.288Z,10.68
2022-12-22T10:19:45.752Z,10.59
2022-12-22T10:22:20.716Z,10.85
2022-12-22T10:24:48.899Z,10.77
2022-12-22T10:27:23.054Z,10.87
2022-12-22T10:29:54.025Z,10.86
2022-12-22T10:32:23.224Z,10.81
2022-12-22T10:34:59.712Z,10.97
2022-12-22T10:37:35.484Z,11.14
2022-12-22T10:40:14.598Z,10.94
2022-12-22T10:42:48.069Z,11.13
2022-12-22T10:45:20.246Z,11.11
2022-12-22T10:47:49.763Z,10.93
2022-12-22T10:50:18.542Z,10.89
2022-12-22T10:52:51.604Z,11.05
2022-12-22T10:55:20.738Z,11.25
2022-12-22T10:57:50.824Z,11.08
2022-12-22T11:00:26.945Z,10.94
2022-12-22T11:02:55.666Z,11.30
2022-12-22T11:05:23.848Z,11.14
2022-12-22T11:07:52.281Z,11.19
2022-12-22T11:10:28.482Z,11.39
2022-12-22T11:13:17.641Z,11.22
2022-12-22T11:15:49.747Z,11.39
2022-12-22T11:18:27.383Z,11.43
2022-12-22T11:21:03.116Z,11.87
2022-12-22T11:23:39.650Z,11.63
2022-12-22T11:26:16.358Z,11.75
2022-12-22T11:29:03.121Z,11.64
2022-12-22T11:31:53.200Z,11.73
2022-12-22T11:34:28.240Z,11.68
2022-12-22T11:37:02.275Z,11.73
2022-12-22T11:39:37.424Z,11.80
2022-12-22T11:42:10.265Z,11.79
2022-12-22T11:44:47.264Z,11.80
2022-12-22T11:47:20.886Z,11.65
2022-12-22T11:50:59.767Z,11.91
2022-12-22T11:53:42.645Z,11.87
2022-12-22T11:56:21.706Z,12.02
2022-12-22T11:59:11.729Z,11.84
2022-12-22T12:01:51.522Z,11.79
2022-12-22T12:04:40.645Z,11.67
2022-12-22T12:07:20.548Z,11.83
2022-12-22T12:09:54.376Z,11.97
2022-12-22T12:12:27.897Z,11.88
2022-12-22T12:15:05.367Z,12.17
2022-12-22T12:17:42.057Z,11.70
2022-12-22T12:20:22.491Z,11.88
2022-12-22T12:22:56.688Z,11.78
2022-12-22T12:25:29.196Z,11.41
2022-12-22T12:28:12.238Z,11.23
2022-12-22T12:30:44.799Z,10.99
2022-12-22T12:33:19.224Z,10.90
2022-12-22T12:35:57.638Z,10.84
2022-12-22T12:41:32.093Z,10.89
2022-12-22T12:44:04.157Z,10.77
2022-12-22T12:46:53.781Z,10.78
2022-12-22T12:49:54.434Z,10.73
2022-12-22T12:53:07.372Z,10.71
2022-12-22T12:55:54.375Z,10.80
2022-12-22T12:58:49.608Z,11.04
2022-12-22T13:01:55.720Z,11.20
2022-12-22T13:05:12.089Z,11.41
2022-12-22T13:08:20.462Z,11.24
2022-12-22T13:11:10.784Z,11.12
2022-12-22T13:13:53.447Z,11.03
2022-12-22T13:16:35.032Z,10.92
2022-12-22T13:19:19.821Z,11.18
2022-12-22T13:21:54.429Z,11.36
2022-12-22T13:24:29.195Z,11.64
2022-12-22T13:27:06.872Z,11.41
2022-12-22T13:29:44.268Z,11.30
2022-12-22T13:32:23.430Z,11.36
2022-12-22T13:37:49.397Z,11.28
2022-12-22T13:40:18.778Z,11.36
2022-12-22T13:42:49.672Z,11.30
2022-12-22T13:45:35.558Z,11.43
2022-12-22T13:48:07.115Z,11.06
2022-12-22T13:50:37.624Z,11.10
2022-12-22T13:53:07.611Z,11.30
2022-12-22T13:55:36.442Z,11.16
2022-12-22T13:58:07.680Z,11.36
2022-12-22T14:00:35.931Z,11.52
2022-12-22T14:03:08.884Z,11.29
2022-12-22T14:05:37.353Z,11.50
2022-12-22T14:08:06.349Z,11.29
2022-12-22T14:10:35.865Z,11.29
2022-12-22T14:13:09.051Z,11.36
2022-12-22T14:15:37.149Z,11.14
2022-12-22T14:18:05.628Z,11.34
2022-12-22T14:20:35.762Z,11.03
2022-12-22T14:23:07.241Z,10.96
2022-12-22T14:25:37.407Z,10.97
2022-12-22T14:28:07.919Z,10.98
2022-12-22T14:30:38.854Z,10.80
2022-12-22T14:33:18.611Z,10.88
2022-12-22T14:35:47.038Z,10.93
2022-12-22T14:38:20.395Z,10.99
2022-12-22T14:40:54.621Z,10.87
2022-12-22T14:43:30.704Z,10.90
2022-12-22T14:46:08.086Z,10.87
2022-12-22T14:48:39.972Z,10.91
2022-12-22T14:51:10.369Z,10.93
2022-12-22T14:53:44.836Z,10.98
2022-12-22T14:56:13.608Z,10.97
2022-12-22T14:58:43.975Z,10.89
2022-12-22T15:01:13.973Z,10.81
2022-12-22T15:03:42.741Z,10.65
2022-12-22T15:06:24.213Z,10.67
2022-12-22T15:08:57.627Z,10.83
2022-12-22T15:11:25.686Z,10.87
2022-12-22T15:13:55.079Z,10.58
2022-12-22T15:16:23.866Z,10.58
2022-12-22T15:18:53.250Z,10.71
2022-12-22T15:21:22.851Z,10.75
2022-12-22T15:23:50.869Z,10.79
2022-12-22T15:26:18.956Z,10.74
2022-12-22T15:28:47.137Z,10.71
2022-12-22T15:31:17.588Z,10.82
2022-12-22T15:33:46.046Z,10.67
2022-12-22T15:36:14.879Z,10.73
2022-12-22T15:38:42.974Z,10.93
2022-12-22T15:41:11.112Z,10.78
2022-12-22T15:43:58.590Z,10.70
2022-12-22T15:46:31.392Z,10.63
2022-12-22T15:48:59.449Z,10.58
2022-12-22T15:51:29.001Z,10.49
2022-12-22T15:53:58.321Z,10.43
2022-12-22T15:56:28.092Z,10.55
2022-12-22T15:58:56.698Z,10.83
2022-12-22T16:01:24.836Z,10.55
2022-12-22T16:03:54.362Z,10.48
2022-12-22T16:06:25.168Z,10.58
2022-12-22T16:08:55.583Z,10.65
2022-12-22T16:11:23.933Z,10.65
2022-12-22T16:13:54.642Z,10.61
2022-12-22T16:16:22.727Z,10.45
2022-12-22T16:18:52.080Z,10.63
2022-12-22T16:21:26.873Z,10.61
2022-12-22T16:23:55.575Z,10.39
2022-12-22T16:26:23.813Z,10.50
2022-12-22T16:28:54.003Z,10.28
2022-12-22T16:31:22.960Z,10.40
2022-12-22T16:33:51.574Z,10.33
2022-12-22T16:36:21.052Z,10.33
2022-12-22T16:38:49.177Z,10.41
2022-12-22T16:41:19.785Z,10.30
2022-12-22T16:43:51.230Z,10.50
2022-12-22T16:46:20.450Z,10.30
2022-12-22T16:48:52.797Z,10.42
2022-12-22T16:51:25.113Z,10.52
2022-12-22T16:53:53.483Z,10.45
2022-12-22T16:56:23.312Z,10.47
2022-12-22T16:58:51.386Z,10.42
2022-12-22T17:01:29.313Z,10.39
2022-12-22T17:03:58.756Z,10.58
2022-12-22T17:06:28.664Z,10.62
2022-12-22T17:08:57.167Z,10.31
2022-12-22T17:11:27.514Z,10.53
2022-12-22T17:13:59.240Z,10.53
2022-12-22T17:16:27.383Z,10.57
2022-12-22T17:18:55.427Z,10.51
2022-12-22T17:21:23.489Z,10.25
2022-12-22T17:23:54.588Z,10.30
2022-12-22T17:26:26.341Z,10.24
2022-12-22T17:28:54.481Z,10.27
2022-12-22T17:31:23.430Z,10.35
2022-12-22T17:33:51.851Z,10.34
2022-12-22T17:36:24.479Z,10.27
2022-12-22T17:38:54.955Z,10.23
2022-12-22T17:41:23.093Z,10.28
2022-12-22T17:43:51.209Z,10.15
2022-12-22T17:46:20.516Z,10.12
2022-12-22T17:48:49.135Z,10.14
2022-12-22T17:51:18.557Z,10.09
2022-12-22T17:53:47.368Z,10.09
2022-12-22T17:56:21.029Z,10.26
2022-12-22T17:58:49.464Z,9.87
2022-12-22T18:01:20.309Z,9.83
2022-12-22T18:03:48.642Z,9.86
2022-12-22T18:06:19.828Z,9.89
2022-12-22T18:08:48.107Z,9.94
2022-12-22T18:11:18.254Z,10.03
2022-12-22T18:13:47.810Z,9.99
2022-12-22T18:16:17.079Z,10.12
2022-12-22T18:18:45.542Z,10.06
2022-12-22T18:21:17.237Z,10.05
2022-12-22T18:23:49.845Z,10.11
2022-12-22T18:26:23.405Z,9.93
2022-12-22T18:28:53.403Z,9.74
2022-12-22T18:31:22.423Z,9.86
2022-12-22T18:33:51.006Z,9.77
2022-12-22T18:36:20.676Z,9.80
2022-12-22T18:38:49.324Z,9.93
2022-12-22T18:41:20.953Z,9.96
2022-12-22T18:43:49.052Z,9.99
2022-12-22T18:46:18.845Z,9.97
2022-12-22T18:48:48.172Z,9.99
2022-12-22T18:51:20.586Z,9.94
2022-12-22T18:53:49.656Z,9.94
2022-12-22T18:56:17.915Z,9.82
2022-12-22T18:58:46.643Z,9.93
2022-12-22T19:01:20.230Z,10.10
2022-12-22T19:03:48.700Z,9.87
2022-12-22T19:06:20.716Z,9.88
2022-12-22T19:08:49.333Z,9.97
2022-12-22T19:11:18.487Z,10.05
2022-12-22T19:13:48.082Z,10.08
2022-12-22T19:16:18.481Z,10.10
2022-12-22T19:18:48.127Z,10.07
2022-12-22T19:21:16.811Z,10.08
2022-12-22T19:23:45.148Z,9.95
2022-12-22T19:26:19.225Z,10.16
2022-12-22T19:28:47.505Z,10.07
2022-12-22T19:31:20.121Z,9.97
2022-12-22T19:33:50.492Z,9.98
2022-12-22T19:36:19.860Z,10.00
2022-12-22T19:38:51.063Z,9.96
2022-12-22T19:41:33.825Z,10.18
2022-12-22T19:44:02.138Z,10.16
2022-12-22T19:46:32.481Z,10.20
2022-12-22T19:49:02.425Z,10.15
2022-12-22T19:51:31.375Z,10.30
2022-12-22T19:53:59.526Z,10.20
2022-12-22T19:56:29.759Z,10.31
2022-12-22T19:58:59.358Z,10.26
2022-12-22T20:01:27.618Z,10.24
2022-12-22T20:03:56.072Z,10.16
2022-12-22T20:06:25.505Z,10.12
2022-12-22T20:08:54.162Z,9.98
2022-12-22T20:11:22.272Z,9.79
2022-12-22T20:13:50.356Z,9.83
2022-12-22T20:16:18.523Z,9.73
2022-12-22T20:18:47.291Z,9.90
2022-12-22T20:21:17.432Z,9.80
2022-12-22T20:23:48.200Z,9.96
2022-12-22T20:26:17.483Z,9.78
2022-12-22T20:28:45.625Z,9.92
2022-12-22T20:31:14.686Z,9.65
2022-12-22T20:33:43.501Z,9.95
2022-12-22T20:36:16.728Z,9.83
2022-12-22T20:38:45.260Z,9.82
2022-12-22T20:41:14.900Z,9.67
2022-12-22T20:43:43.215Z,9.76
2022-12-22T20:46:13.434Z,9.72
2022-12-22T20:48:43.717Z,9.66
2022-12-22T20:51:13.821Z,9.77
2022-12-22T20:53:42.562Z,9.61
2022-12-22T20:56:20.556Z,9.72
2022-12-22T20:58:48.617Z,9.70
2022-12-22T21:01:16.855Z,9.89
2022-12-22T21:03:45.033Z,9.88
2022-12-22T21:06:26.260Z,9.95
2022-12-22T21:08:54.819Z,9.90
2022-12-22T21:11:24.529Z,9.88
2022-12-22T21:13:52.879Z,9.73
2022-12-22T21:16:23.036Z,9.84
2022-12-22T21:18:54.120Z,9.66
2022-12-22T21:21:22.389Z,9.85
2022-12-22T21:23:50.609Z,9.66
2022-12-22T21:26:21.585Z,9.69
2022-12-22T21:28:52.075Z,9.64
2022-12-22T21:31:20.252Z,9.50
2022-12-22T21:33:50.134Z,9.48
2022-12-22T21:36:22.606Z,9.44
2022-12-22T21:38:52.763Z,9.48
2022-12-22T21:41:40.767Z,9.52
2022-12-22T21:44:12.440Z,9.55
2022-12-22T21:46:40.895Z,9.48
2022-12-22T21:49:16.113Z,9.49
2022-12-22T21:51:44.135Z,9.33
2022-12-22T21:54:14.502Z,9.43
2022-12-22T21:56:42.529Z,9.61
2022-12-22T22:02:38.796Z,9.71
2022-12-22T22:05:35.933Z,9.86
2022-12-22T22:08:06.443Z,10.07
2022-12-22T22:10:38.745Z,9.79
2022-12-22T22:13:07.837Z,10.06
2022-12-22T22:15:36.342Z,9.54
2022-12-22T22:18:07.565Z,9.77
2022-12-22T22:20:36.072Z,9.76
2022-12-22T22:23:04.690Z,9.69
2022-12-22T22:25:33.081Z,9.58
2022-12-22T22:28:01.524Z,9.67
2022-12-22T22:30:29.934Z,9.55
2022-12-22T22:32:58.316Z,9.74
2022-12-22T22:35:28.416Z,9.75
2022-12-22T22:37:56.705Z,9.64
2022-12-22T22:40:25.093Z,9.69
2022-12-22T22:42:53.782Z,9.42
2022-12-22T22:45:24.182Z,9.65
2022-12-22T22:47:53.454Z,9.71
2022-12-22T22:50:23.133Z,9.73
2022-12-22T22:52:52.779Z,9.54
2022-12-22T22:55:21.056Z,9.24
2022-12-22T22:57:49.663Z,9.41
2022-12-22T23:00:21.695Z,9.35
2022-12-22T23:02:50.127Z,9.35
2022-12-22T23:05:22.676Z,9.32
2022-12-22T23:07:52.812Z,9.28
2022-12-22T23:10:21.156Z,9.26
2022-12-22T23:12:49.437Z,9.42
2022-12-22T23:15:19.877Z,9.32
2022-12-22T23:17:48.137Z,9.38
2022-12-22T23:20:16.587Z,9.63
2022-12-22T23:22:44.971Z,9.42
2022-12-22T23:25:14.620Z,9.26
2022-12-22T23:27:42.928Z,9.24
2022-12-22T23:30:12.099Z,9.41
2022-12-22T23:32:40.364Z,9.47
2022-12-22T23:35:09.278Z,9.67
2022-12-22T23:37:37.592Z,9.26
2022-12-22T23:42:57.375Z,9.20
2022-12-22T23:45:25.710Z,9.25
2022-12-22T23:47:54.022Z,9.37
2022-12-22T23:50:22.442Z,9.40
2022-12-22T23:52:51.911Z,9.22
2022-12-22T23:55:20.848Z,9.28
2022-12-22T23:57:52.305Z,9.36
